sensor_id;sensor_type;location;lat;lon;timestamp;pressure;altitude;pressure_sealevel;temperature;humidity
22651;BME280;11492;42.646;23.400;2023-02-15T00:01:49;96241.25;;;3.31;67.17
22651;BME280;11492;42.646;23.400;2023-02-15T00:04:17;96251.13;;;3.23;67.60
22651;BME280;11492;42.646;23.400;2023-02-15T00:06:43;96248.41;;;3.14;67.88
22651;BME280;11492;42.646;23.400;2023-02-15T00:09:09;96244.59;;;3.20;67.80
22651;BME280;11492;42.646;23.400;2023-02-15T00:11:35;96262.78;;;3.27;67.66
22651;BME280;11492;42.646;23.400;2023-02-15T00:14:28;96256.84;;;3.27;67.22
22651;BME280;11492;42.646;23.400;2023-02-15T00:16:54;96254.31;;;3.27;67.61
22651;BME280;11492;42.646;23.400;2023-02-15T00:19:21;96255.94;;;3.28;67.48
22651;BME280;11492;42.646;23.400;2023-02-15T00:21:48;96262.16;;;3.24;68.04
22651;BME280;11492;42.646;23.400;2023-02-15T00:24:16;96266.56;;;3.22;68.11
22651;BME280;11492;42.646;23.400;2023-02-15T00:26:42;96263.69;;;3.26;68.27
22651;BME280;11492;42.646;23.400;2023-02-15T00:29:09;96263.47;;;3.29;67.89
22651;BME280;11492;42.646;23.400;2023-02-15T00:31:34;96264.50;;;3.15;68.71
22651;BME280;11492;42.646;23.400;2023-02-15T00:34:05;96266.75;;;3.19;68.05
22651;BME280;11492;42.646;23.400;2023-02-15T00:36:31;96272.66;;;3.20;67.98
22651;BME280;11492;42.646;23.400;2023-02-15T00:38:56;96253.31;;;3.17;68.00
22651;BME280;11492;42.646;23.400;2023-02-15T00:41:22;96264.19;;;3.19;68.62
22651;BME280;11492;42.646;23.400;2023-02-15T00:43:47;96276.44;;;3.14;68.74
22651;BME280;11492;42.646;23.400;2023-02-15T00:46:12;96261.16;;;3.14;68.06
22651;BME280;11492;42.646;23.400;2023-02-15T00:48:38;96268.59;;;3.17;68.39
22651;BME280;11492;42.646;23.400;2023-02-15T00:51:03;96272.78;;;3.18;68.96
22651;BME280;11492;42.646;23.400;2023-02-15T00:53:29;96269.31;;;3.19;68.56
22651;BME280;11492;42.646;23.400;2023-02-15T00:55:55;96255.34;;;3.12;68.29
22651;BME280;11492;42.646;23.400;2023-02-15T00:58:21;96253.22;;;3.06;68.57
22651;BME280;11492;42.646;23.400;2023-02-15T01:00:47;96253.72;;;3.11;68.73
22651;BME280;11492;42.646;23.400;2023-02-15T01:03:14;96272.66;;;3.20;67.99
22651;BME280;11492;42.646;23.400;2023-02-15T01:05:40;96255.53;;;3.22;67.75
22651;BME280;11492;42.646;23.400;2023-02-15T01:08:06;96248.69;;;3.10;68.13
22651;BME280;11492;42.646;23.400;2023-02-15T01:10:33;96260.44;;;3.12;68.42
22651;BME280;11492;42.646;23.400;2023-02-15T01:12:59;96246.06;;;2.99;69.08
22651;BME280;11492;42.646;23.400;2023-02-15T01:15:24;96245.56;;;2.94;68.83
22651;BME280;11492;42.646;23.400;2023-02-15T01:17:49;96254.88;;;2.95;69.40
22651;BME280;11492;42.646;23.400;2023-02-15T01:20:23;96257.06;;;2.99;69.94
22651;BME280;11492;42.646;23.400;2023-02-15T01:22:49;96253.03;;;2.97;68.73
22651;BME280;11492;42.646;23.400;2023-02-15T01:25:16;96244.34;;;2.99;68.94
22651;BME280;11492;42.646;23.400;2023-02-15T01:27:42;96245.16;;;2.88;69.58
22651;BME280;11492;42.646;23.400;2023-02-15T01:30:08;96240.47;;;2.94;70.00
22651;BME280;11492;42.646;23.400;2023-02-15T01:32:34;96234.34;;;2.84;69.18
22651;BME280;11492;42.646;23.400;2023-02-15T01:34:59;96239.44;;;2.84;70.35
22651;BME280;11492;42.646;23.400;2023-02-15T01:37:24;96226.31;;;2.78;69.71
22651;BME280;11492;42.646;23.400;2023-02-15T01:39:50;96237.22;;;2.92;69.30
22651;BME280;11492;42.646;23.400;2023-02-15T01:42:21;96237.50;;;2.88;70.38
22651;BME280;11492;42.646;23.400;2023-02-15T01:44:57;96231.91;;;2.95;69.43
22651;BME280;11492;42.646;23.400;2023-02-15T01:50:06;96233.34;;;2.87;70.07
22651;BME280;11492;42.646;23.400;2023-02-15T01:52:37;96228.03;;;2.77;70.47
22651;BME280;11492;42.646;23.400;2023-02-15T01:55:04;96225.00;;;2.85;70.27
22651;BME280;11492;42.646;23.400;2023-02-15T01:57:30;96214.91;;;2.71;70.54
22651;BME280;11492;42.646;23.400;2023-02-15T01:59:58;96213.66;;;2.76;70.05
22651;BME280;11492;42.646;23.400;2023-02-15T02:02:25;96221.94;;;2.80;70.03
22651;BME280;11492;42.646;23.400;2023-02-15T02:04:54;96224.34;;;2.94;70.19
22651;BME280;11492;42.646;23.400;2023-02-15T02:07:24;96221.53;;;2.86;69.84
22651;BME280;11492;42.646;23.400;2023-02-15T02:09:51;96227.81;;;2.93;69.91
22651;BME280;11492;42.646;23.400;2023-02-15T02:12:17;96229.44;;;2.94;70.20
22651;BME280;11492;42.646;23.400;2023-02-15T02:14:44;96218.47;;;2.81;69.85
22651;BME280;11492;42.646;23.400;2023-02-15T02:20:47;96234.25;;;2.86;70.46
22651;BME280;11492;42.646;23.400;2023-02-15T02:29:13;96247.22;;;2.83;70.34
22651;BME280;11492;42.646;23.400;2023-02-15T02:32:00;96242.09;;;2.83;69.76
22651;BME280;11492;42.646;23.400;2023-02-15T02:34:42;96240.91;;;2.76;69.99
22651;BME280;11492;42.646;23.400;2023-02-15T02:37:37;96246.81;;;2.64;70.91
22651;BME280;11492;42.646;23.400;2023-02-15T02:41:06;96238.84;;;2.69;71.47
22651;BME280;11492;42.646;23.400;2023-02-15T02:43:22;96231.81;;;2.72;70.23
22651;BME280;11492;42.646;23.400;2023-02-15T02:46:08;96232.31;;;2.89;70.17
22651;BME280;11492;42.646;23.400;2023-02-15T02:48:38;96223.34;;;2.84;70.86
22651;BME280;11492;42.646;23.400;2023-02-15T02:51:04;96247.28;;;2.94;70.42
22651;BME280;11492;42.646;23.400;2023-02-15T02:53:30;96246.38;;;2.95;70.64
22651;BME280;11492;42.646;23.400;2023-02-15T02:56:08;96248.22;;;2.93;70.64
22651;BME280;11492;42.646;23.400;2023-02-15T02:58:59;96244.56;;;2.97;70.31
22651;BME280;11492;42.646;23.400;2023-02-15T03:01:35;96254.75;;;2.97;70.66
22651;BME280;11492;42.646;23.400;2023-02-15T03:04:10;96255.03;;;3.04;70.45
22651;BME280;11492;42.646;23.400;2023-02-15T03:06:50;96249.34;;;3.01;70.65
22651;BME280;11492;42.646;23.400;2023-02-15T03:09:29;96262.59;;;3.06;70.78
22651;BME280;11492;42.646;23.400;2023-02-15T03:12:08;96261.06;;;3.03;70.54
22651;BME280;11492;42.646;23.400;2023-02-15T03:14:35;96271.38;;;2.90;70.66
22651;BME280;11492;42.646;23.400;2023-02-15T03:17:01;96257.91;;;2.88;70.93
22651;BME280;11492;42.646;23.400;2023-02-15T03:19:31;96247.59;;;2.89;70.81
22651;BME280;11492;42.646;23.400;2023-02-15T03:22:03;96262.91;;;3.01;70.36
22651;BME280;11492;42.646;23.400;2023-02-15T03:24:49;96261.38;;;2.99;69.71
22651;BME280;11492;42.646;23.400;2023-02-15T03:27:20;96262.81;;;2.91;70.35
22651;BME280;11492;42.646;23.400;2023-02-15T03:29:57;96258.00;;;2.98;71.45
22651;BME280;11492;42.646;23.400;2023-02-15T03:32:24;96257.59;;;3.04;70.19
22651;BME280;11492;42.646;23.400;2023-02-15T03:34:51;96255.34;;;3.12;70.28
22651;BME280;11492;42.646;23.400;2023-02-15T03:37:26;96256.56;;;3.07;69.66
22651;BME280;11492;42.646;23.400;2023-02-15T03:39:59;96252.91;;;3.11;70.23
22651;BME280;11492;42.646;23.400;2023-02-15T03:42:50;96254.53;;;3.12;70.05
22651;BME280;11492;42.646;23.400;2023-02-15T03:45:25;96258.91;;;3.10;69.94
22651;BME280;11492;42.646;23.400;2023-02-15T03:47:54;96255.84;;;3.05;70.87
22651;BME280;11492;42.646;23.400;2023-02-15T03:50:24;96256.97;;;3.13;70.73
22651;BME280;11492;42.646;23.400;2023-02-15T03:53:13;96261.06;;;3.16;70.62
22651;BME280;11492;42.646;23.400;2023-02-15T03:55:40;96256.19;;;3.00;70.52
22651;BME280;11492;42.646;23.400;2023-02-15T03:58:05;96260.03;;;2.94;71.38
22651;BME280;11492;42.646;23.400;2023-02-15T04:00:50;96264.94;;;3.09;70.48
22651;BME280;11492;42.646;23.400;2023-02-15T04:03:39;96269.03;;;3.11;70.80
22651;BME280;11492;42.646;23.400;2023-02-15T04:06:06;96264.72;;;3.12;70.80
22651;BME280;11492;42.646;23.400;2023-02-15T04:08:31;96269.03;;;3.11;70.71
22651;BME280;11492;42.646;23.400;2023-02-15T04:11:15;96271.66;;;3.22;70.34
22651;BME280;11492;42.646;23.400;2023-02-15T04:13:41;96269.38;;;3.30;70.47
22651;BME280;11492;42.646;23.400;2023-02-15T04:16:06;96274.06;;;3.36;69.95
22651;BME280;11492;42.646;23.400;2023-02-15T04:18:37;96272.59;;;3.21;69.94
22651;BME280;11492;42.646;23.400;2023-02-15T04:21:23;96282.66;;;3.35;70.64
22651;BME280;11492;42.646;23.400;2023-02-15T04:24:07;96273.25;;;3.35;69.87
22651;BME280;11492;42.646;23.400;2023-02-15T04:26:52;96287.63;;;3.48;70.34
22651;BME280;11492;42.646;23.400;2023-02-15T04:29:19;96295.47;;;3.46;69.44
22651;BME280;11492;42.646;23.400;2023-02-15T04:31:45;96296.53;;;3.43;69.30
22651;BME280;11492;42.646;23.400;2023-02-15T04:34:11;96309.97;;;3.57;69.97
22651;BME280;11492;42.646;23.400;2023-02-15T04:36:37;96298.59;;;3.61;68.63
22651;BME280;11492;42.646;23.400;2023-02-15T04:39:04;96305.56;;;3.59;69.60
22651;BME280;11492;42.646;23.400;2023-02-15T04:41:29;96298.53;;;3.50;69.00
22651;BME280;11492;42.646;23.400;2023-02-15T04:43:55;96307.19;;;3.60;69.61
22651;BME280;11492;42.646;23.400;2023-02-15T04:46:21;96306.75;;;3.66;69.24
22651;BME280;11492;42.646;23.400;2023-02-15T04:48:47;96309.31;;;3.66;69.45
22651;BME280;11492;42.646;23.400;2023-02-15T04:51:12;96295.78;;;3.53;69.38
22651;BME280;11492;42.646;23.400;2023-02-15T04:53:37;96297.91;;;3.59;69.07
22651;BME280;11492;42.646;23.400;2023-02-15T04:56:09;96308.31;;;3.56;68.96
22651;BME280;11492;42.646;23.400;2023-02-15T04:58:34;96327.34;;;3.52;70.16
22651;BME280;11492;42.646;23.400;2023-02-15T05:01:02;96309.75;;;3.60;69.65
22651;BME280;11492;42.646;23.400;2023-02-15T05:03:27;96312.38;;;3.71;69.89
22651;BME280;11492;42.646;23.400;2023-02-15T05:05:53;96315.41;;;3.76;68.86
22651;BME280;11492;42.646;23.400;2023-02-15T05:08:19;96320.31;;;3.79;68.89
22651;BME280;11492;42.646;23.400;2023-02-15T05:10:47;96321.88;;;3.69;69.83
22651;BME280;11492;42.646;23.400;2023-02-15T05:13:13;96315.84;;;3.70;68.80
22651;BME280;11492;42.646;23.400;2023-02-15T05:15:39;96319.72;;;3.75;69.48
22651;BME280;11492;42.646;23.400;2023-02-15T05:18:04;96315.22;;;3.79;68.92
22651;BME280;11492;42.646;23.400;2023-02-15T05:20:31;96321.53;;;3.86;68.96
22651;BME280;11492;42.646;23.400;2023-02-15T05:22:57;96323.16;;;3.87;69.34
22651;BME280;11492;42.646;23.400;2023-02-15T05:25:22;96336.03;;;3.85;68.60
22651;BME280;11492;42.646;23.400;2023-02-15T05:28:11;96333.75;;;3.93;69.90
22651;BME280;11492;42.646;23.400;2023-02-15T05:30:50;96341.81;;;3.99;68.20
22651;BME280;11492;42.646;23.400;2023-02-15T05:33:16;96342.19;;;3.71;68.96
22651;BME280;11492;42.646;23.400;2023-02-15T05:35:42;96337.97;;;3.82;69.24
22651;BME280;11492;42.646;23.400;2023-02-15T05:38:08;96340.31;;;3.85;68.57
22651;BME280;11492;42.646;23.400;2023-02-15T05:40:34;96344.19;;;3.90;69.06
22651;BME280;11492;42.646;23.400;2023-02-15T05:43:00;96337.78;;;3.85;68.82
22651;BME280;11492;42.646;23.400;2023-02-15T05:45:25;96348.25;;;3.93;68.27
22651;BME280;11492;42.646;23.400;2023-02-15T05:47:51;96344.38;;;3.87;68.08
22651;BME280;11492;42.646;23.400;2023-02-15T05:50:16;96352.22;;;3.97;68.48
22651;BME280;11492;42.646;23.400;2023-02-15T05:52:42;96345.31;;;3.86;68.18
22651;BME280;11492;42.646;23.400;2023-02-15T05:55:07;96333.59;;;3.84;68.46
22651;BME280;11492;42.646;23.400;2023-02-15T05:57:34;96350.97;;;3.79;68.33
22651;BME280;11492;42.646;23.400;2023-02-15T06:00:00;96344.03;;;3.69;69.43
22651;BME280;11492;42.646;23.400;2023-02-15T06:02:26;96341.63;;;3.90;68.84
22651;BME280;11492;42.646;23.400;2023-02-15T06:04:51;96351.97;;;3.89;68.98
22651;BME280;11492;42.646;23.400;2023-02-15T06:07:17;96348.69;;;3.87;68.96
22651;BME280;11492;42.646;23.400;2023-02-15T06:09:42;96350.72;;;3.94;68.22
22651;BME280;11492;42.646;23.400;2023-02-15T06:12:08;96353.97;;;3.96;67.99
22651;BME280;11492;42.646;23.400;2023-02-15T06:14:33;96361.53;;;3.97;68.66
22651;BME280;11492;42.646;23.400;2023-02-15T06:16:58;96347.41;;;4.04;67.92
22651;BME280;11492;42.646;23.400;2023-02-15T06:19:24;96354.53;;;4.12;68.08
22651;BME280;11492;42.646;23.400;2023-02-15T06:21:49;96349.78;;;4.18;67.24
22651;BME280;11492;42.646;23.400;2023-02-15T06:24:15;96352.03;;;4.22;66.97
22651;BME280;11492;42.646;23.400;2023-02-15T06:26:40;96349.03;;;4.28;66.49
22651;BME280;11492;42.646;23.400;2023-02-15T06:29:06;96358.28;;;4.42;66.85
22651;BME280;11492;42.646;23.400;2023-02-15T06:31:31;96364.03;;;4.45;66.52
22651;BME280;11492;42.646;23.400;2023-02-15T06:33:57;96360.22;;;4.50;66.04
22651;BME280;11492;42.646;23.400;2023-02-15T06:36:27;96354.84;;;4.53;65.75
22651;BME280;11492;42.646;23.400;2023-02-15T06:38:54;96347.44;;;4.50;66.11
22651;BME280;11492;42.646;23.400;2023-02-15T06:41:19;96363.28;;;4.66;65.09
22651;BME280;11492;42.646;23.400;2023-02-15T06:43:44;96359.81;;;4.67;64.80
22651;BME280;11492;42.646;23.400;2023-02-15T06:46:10;96357.56;;;4.40;65.87
22651;BME280;11492;42.646;23.400;2023-02-15T06:48:35;96356.03;;;4.60;65.13
22651;BME280;11492;42.646;23.400;2023-02-15T06:51:01;96351.81;;;4.72;65.05
22651;BME280;11492;42.646;23.400;2023-02-15T06:53:26;96350.91;;;4.83;65.29
22651;BME280;11492;42.646;23.400;2023-02-15T06:55:51;96339.19;;;4.92;64.87
22651;BME280;11492;42.646;23.400;2023-02-15T06:58:17;96352.47;;;5.07;64.00
22651;BME280;11492;42.646;23.400;2023-02-15T07:00:42;96361.09;;;5.17;63.61
22651;BME280;11492;42.646;23.400;2023-02-15T07:03:08;96349.13;;;5.18;63.72
22651;BME280;11492;42.646;23.400;2023-02-15T07:05:34;96349.72;;;5.32;63.06
22651;BME280;11492;42.646;23.400;2023-02-15T07:08:00;96350.44;;;5.34;62.25
22651;BME280;11492;42.646;23.400;2023-02-15T07:10:26;96347.94;;;5.21;63.03
22651;BME280;11492;42.646;23.400;2023-02-15T07:12:51;96354.63;;;5.35;62.91
22651;BME280;11492;42.646;23.400;2023-02-15T07:15:18;96356.38;;;5.56;62.82
22651;BME280;11492;42.646;23.400;2023-02-15T07:17:46;96360.25;;;5.72;62.04
22651;BME280;11492;42.646;23.400;2023-02-15T07:20:14;96352.09;;;5.78;61.50
22651;BME280;11492;42.646;23.400;2023-02-15T07:22:40;96361.72;;;5.64;61.09
22651;BME280;11492;42.646;23.400;2023-02-15T07:25:07;96369.00;;;5.70;61.50
22651;BME280;11492;42.646;23.400;2023-02-15T07:27:34;96348.69;;;5.56;61.36
22651;BME280;11492;42.646;23.400;2023-02-15T07:30:00;96357.22;;;5.78;61.71
22651;BME280;11492;42.646;23.400;2023-02-15T07:32:32;96356.53;;;5.76;60.84
22651;BME280;11492;42.646;23.400;2023-02-15T07:34:58;96349.03;;;5.84;60.35
22651;BME280;11492;42.646;23.400;2023-02-15T07:37:24;96341.59;;;5.59;60.56
22651;BME280;11492;42.646;23.400;2023-02-15T07:39:50;96345.69;;;5.72;61.07
22651;BME280;11492;42.646;23.400;2023-02-15T07:42:15;96335.69;;;5.70;60.24
22651;BME280;11492;42.646;23.400;2023-02-15T07:44:41;96334.88;;;5.80;60.82
22651;BME280;11492;42.646;23.400;2023-02-15T07:47:06;96348.94;;;5.85;60.00
22651;BME280;11492;42.646;23.400;2023-02-15T07:49:32;96335.44;;;5.83;60.09
22651;BME280;11492;42.646;23.400;2023-02-15T07:51:57;96325.31;;;5.71;59.76
22651;BME280;11492;42.646;23.400;2023-02-15T07:54:23;96333.81;;;5.72;59.89
22651;BME280;11492;42.646;23.400;2023-02-15T07:56:48;96333.19;;;5.90;59.95
22651;BME280;11492;42.646;23.400;2023-02-15T07:59:13;96349.00;;;6.05;59.77
22651;BME280;11492;42.646;23.400;2023-02-15T08:01:39;96336.91;;;6.07;59.41
22651;BME280;11492;42.646;23.400;2023-02-15T08:04:06;96342.03;;;6.07;59.07
22651;BME280;11492;42.646;23.400;2023-02-15T08:06:33;96342.38;;;6.14;59.57
22651;BME280;11492;42.646;23.400;2023-02-15T08:08:59;96348.66;;;6.10;58.84
22651;BME280;11492;42.646;23.400;2023-02-15T08:11:27;96337.81;;;6.17;58.76
22651;BME280;11492;42.646;23.400;2023-02-15T08:16:50;96352.69;;;6.34;58.21
22651;BME280;11492;42.646;23.400;2023-02-15T08:19:19;96343.47;;;6.42;57.77
22651;BME280;11492;42.646;23.400;2023-02-15T08:21:52;96332.59;;;6.49;57.65
22651;BME280;11492;42.646;23.400;2023-02-15T08:24:21;96351.00;;;6.54;57.39
22651;BME280;11492;42.646;23.400;2023-02-15T08:26:47;96349.16;;;6.46;57.12
22651;BME280;11492;42.646;23.400;2023-02-15T08:29:14;96351.69;;;6.56;57.27
22651;BME280;11492;42.646;23.400;2023-02-15T08:31:40;96350.72;;;6.68;56.90
22651;BME280;11492;42.646;23.400;2023-02-15T08:34:08;96360.69;;;6.51;56.99
22651;BME280;11492;42.646;23.400;2023-02-15T08:36:34;96339.34;;;7.01;56.32
22651;BME280;11492;42.646;23.400;2023-02-15T08:39:02;96356.69;;;7.29;55.64
22651;BME280;11492;42.646;23.400;2023-02-15T08:41:36;96356.56;;;8.09;53.90
22651;BME280;11492;42.646;23.400;2023-02-15T08:44:11;96339.81;;;9.71;47.63
22651;BME280;11492;42.646;23.400;2023-02-15T08:46:39;96333.44;;;11.06;45.64
22651;BME280;11492;42.646;23.400;2023-02-15T08:49:05;96338.50;;;13.05;42.13
22651;BME280;11492;42.646;23.400;2023-02-15T08:51:33;96328.06;;;15.19;37.78
22651;BME280;11492;42.646;23.400;2023-02-15T08:54:01;96339.75;;;15.95;35.74
22651;BME280;11492;42.646;23.400;2023-02-15T08:56:30;96338.41;;;15.63;35.28
22651;BME280;11492;42.646;23.400;2023-02-15T08:58:57;96344.88;;;14.48;36.60
22651;BME280;11492;42.646;23.400;2023-02-15T09:01:28;96359.38;;;12.96;39.64
22651;BME280;11492;42.646;23.400;2023-02-15T09:03:58;96345.75;;;12.86;40.83
22651;BME280;11492;42.646;23.400;2023-02-15T09:06:24;96355.81;;;13.98;37.85
22651;BME280;11492;42.646;23.400;2023-02-15T09:08:50;96346.75;;;13.47;37.65
22651;BME280;11492;42.646;23.400;2023-02-15T09:11:19;96353.56;;;13.48;38.20
22651;BME280;11492;42.646;23.400;2023-02-15T09:14:04;96351.00;;;14.93;36.51
22651;BME280;11492;42.646;23.400;2023-02-15T09:16:32;96339.44;;;15.76;34.19
22651;BME280;11492;42.646;23.400;2023-02-15T09:18:58;96333.50;;;15.31;34.52
22651;BME280;11492;42.646;23.400;2023-02-15T09:21:25;96346.78;;;14.92;34.73
22651;BME280;11492;42.646;23.400;2023-02-15T09:23:56;96345.88;;;15.29;33.83
22651;BME280;11492;42.646;23.400;2023-02-15T09:26:23;96339.25;;;14.75;34.41
22651;BME280;11492;42.646;23.400;2023-02-15T09:28:52;96345.72;;;14.03;36.13
22651;BME280;11492;42.646;23.400;2023-02-15T09:31:22;96343.06;;;14.87;34.63
22651;BME280;11492;42.646;23.400;2023-02-15T09:33:49;96344.50;;;15.92;33.07
22651;BME280;11492;42.646;23.400;2023-02-15T09:36:17;96340.66;;;16.45;31.50
22651;BME280;11492;42.646;23.400;2023-02-15T09:38:44;96347.59;;;16.38;32.29
22651;BME280;11492;42.646;23.400;2023-02-15T09:41:35;96351.53;;;14.13;35.65
22651;BME280;11492;42.646;23.400;2023-02-15T09:50:19;96359.59;;;9.99;42.56
22651;BME280;11492;42.646;23.400;2023-02-15T10:01:03;96337.84;;;13.19;37.91
22651;BME280;11492;42.646;23.400;2023-02-15T10:20:47;96330.06;;;14.87;33.74
22651;BME280;11492;42.646;23.400;2023-02-15T10:28:28;96313.03;;;18.15;29.79
22651;BME280;11492;42.646;23.400;2023-02-15T10:31:22;96309.41;;;19.01;29.04
22651;BME280;11492;42.646;23.400;2023-02-15T10:34:35;96318.53;;;18.72;28.93
22651;BME280;11492;42.646;23.400;2023-02-15T10:39:47;96303.31;;;18.02;28.83
22651;BME280;11492;42.646;23.400;2023-02-15T10:42:47;96305.44;;;18.72;29.18
22651;BME280;11492;42.646;23.400;2023-02-15T10:45:34;96303.81;;;17.65;29.79
22651;BME280;11492;42.646;23.400;2023-02-15T10:50:46;96295.25;;;18.37;29.22
22651;BME280;11492;42.646;23.400;2023-02-15T10:53:20;96302.88;;;17.72;29.54
22651;BME280;11492;42.646;23.400;2023-02-15T10:56:24;96287.28;;;17.58;29.83
22651;BME280;11492;42.646;23.400;2023-02-15T10:59:14;96298.06;;;18.36;28.60
22651;BME280;11492;42.646;23.400;2023-02-15T11:01:43;96283.81;;;18.45;28.75
22651;BME280;11492;42.646;23.400;2023-02-15T11:04:45;96279.19;;;18.47;28.69
22651;BME280;11492;42.646;23.400;2023-02-15T11:09:46;96274.41;;;19.53;27.17
22651;BME280;11492;42.646;23.400;2023-02-15T11:12:17;96259.94;;;20.51;26.13
22651;BME280;11492;42.646;23.400;2023-02-15T11:17:35;96283.25;;;18.55;27.75
22651;BME280;11492;42.646;23.400;2023-02-15T11:22:41;96278.03;;;19.91;26.80
22651;BME280;11492;42.646;23.400;2023-02-15T11:25:19;96273.50;;;21.16;25.67
22651;BME280;11492;42.646;23.400;2023-02-15T11:27:46;96279.50;;;20.55;25.64
22651;BME280;11492;42.646;23.400;2023-02-15T11:30:25;96270.03;;;20.48;25.82
22651;BME280;11492;42.646;23.400;2023-02-15T11:32:58;96274.56;;;20.09;26.26
22651;BME280;11492;42.646;23.400;2023-02-15T11:35:31;96270.97;;;19.21;27.14
22651;BME280;11492;42.646;23.400;2023-02-15T11:38:15;96271.75;;;20.73;25.71
22651;BME280;11492;42.646;23.400;2023-02-15T11:40:49;96260.81;;;22.15;24.57
22651;BME280;11492;42.646;23.400;2023-02-15T11:46:12;96253.72;;;22.33;24.09
22651;BME280;11492;42.646;23.400;2023-02-15T11:48:38;96246.84;;;22.97;23.57
22651;BME280;11492;42.646;23.400;2023-02-15T11:51:04;96246.69;;;22.27;23.71
22651;BME280;11492;42.646;23.400;2023-02-15T11:53:36;96229.38;;;23.13;23.34
22651;BME280;11492;42.646;23.400;2023-02-15T11:56:03;96226.56;;;23.37;22.76
22651;BME280;11492;42.646;23.400;2023-02-15T11:58:43;96230.88;;;23.61;22.73
22651;BME280;11492;42.646;23.400;2023-02-15T12:01:33;96222.94;;;24.90;21.83
22651;BME280;11492;42.646;23.400;2023-02-15T12:04:04;96223.00;;;25.38;21.35
22651;BME280;11492;42.646;23.400;2023-02-15T12:06:42;96221.75;;;25.89;20.58
22651;BME280;11492;42.646;23.400;2023-02-15T12:09:34;96227.19;;;24.68;21.26
22651;BME280;11492;42.646;23.400;2023-02-15T12:12:24;96239.72;;;20.52;25.12
22651;BME280;11492;42.646;23.400;2023-02-15T12:14:52;96226.78;;;21.72;24.50
22651;BME280;11492;42.646;23.400;2023-02-15T12:17:22;96230.78;;;21.98;23.41
22651;BME280;11492;42.646;23.400;2023-02-15T12:19:49;96214.22;;;21.32;24.41
22651;BME280;11492;42.646;23.400;2023-02-15T12:22:25;96217.03;;;21.79;23.92
22651;BME280;11492;42.646;23.400;2023-02-15T12:25:01;96206.41;;;23.02;22.87
22651;BME280;11492;42.646;23.400;2023-02-15T12:27:32;96206.38;;;22.45;23.56
22651;BME280;11492;42.646;23.400;2023-02-15T12:30:03;96213.34;;;23.26;22.72
22651;BME280;11492;42.646;23.400;2023-02-15T12:32:35;96216.63;;;22.35;23.10
22651;BME280;11492;42.646;23.400;2023-02-15T12:35:08;96207.84;;;22.41;23.06
22651;BME280;11492;42.646;23.400;2023-02-15T12:37:34;96200.16;;;23.15;22.57
22651;BME280;11492;42.646;23.400;2023-02-15T12:40:19;96202.94;;;22.91;22.68
22651;BME280;11492;42.646;23.400;2023-02-15T12:42:45;96190.94;;;23.80;22.47
22651;BME280;11492;42.646;23.400;2023-02-15T12:48:07;96188.94;;;25.74;20.47
22651;BME280;11492;42.646;23.400;2023-02-15T12:50:33;96186.16;;;26.02;20.30
22651;BME280;11492;42.646;23.400;2023-02-15T12:58:42;96178.03;;;25.71;20.36
22651;BME280;11492;42.646;23.400;2023-02-15T13:01:18;96178.94;;;24.45;21.34
22651;BME280;11492;42.646;23.400;2023-02-15T13:06:23;96166.16;;;25.89;20.13
22651;BME280;11492;42.646;23.400;2023-02-15T13:08:50;96176.13;;;25.50;20.66
22651;BME280;11492;42.646;23.400;2023-02-15T13:11:35;96175.38;;;24.67;21.02
22651;BME280;11492;42.646;23.400;2023-02-15T13:14:07;96176.81;;;22.89;22.84
22651;BME280;11492;42.646;23.400;2023-02-15T13:16:43;96176.47;;;23.49;22.07
22651;BME280;11492;42.646;23.400;2023-02-15T13:19:17;96165.47;;;22.89;23.01
22651;BME280;11492;42.646;23.400;2023-02-15T13:21:47;96166.59;;;23.44;22.43
22651;BME280;11492;42.646;23.400;2023-02-15T13:24:33;96166.03;;;23.53;22.31
22651;BME280;11492;42.646;23.400;2023-02-15T13:27:00;96164.00;;;24.78;21.54
22651;BME280;11492;42.646;23.400;2023-02-15T13:29:28;96165.84;;;25.70;20.60
22651;BME280;11492;42.646;23.400;2023-02-15T13:31:57;96170.63;;;24.03;21.68
22651;BME280;11492;42.646;23.400;2023-02-15T13:34:31;96171.91;;;23.78;21.95
22651;BME280;11492;42.646;23.400;2023-02-15T13:37:05;96167.59;;;25.00;21.11
22651;BME280;11492;42.646;23.400;2023-02-15T13:39:59;96167.09;;;25.35;20.74
22651;BME280;11492;42.646;23.400;2023-02-15T13:42:37;96176.03;;;23.97;22.01
22651;BME280;11492;42.646;23.400;2023-02-15T13:45:10;96185.25;;;21.39;23.86
22651;BME280;11492;42.646;23.400;2023-02-15T13:53:25;96200.91;;;16.50;30.67
22651;BME280;11492;42.646;23.400;2023-02-15T13:56:12;96199.53;;;15.70;31.77
22651;BME280;11492;42.646;23.400;2023-02-15T14:18:51;96220.38;;;11.91;40.37
22651;BME280;11492;42.646;23.400;2023-02-15T14:21:19;96222.28;;;11.89;39.81
22651;BME280;11492;42.646;23.400;2023-02-15T14:31:55;96245.44;;;10.48;43.91
22651;BME280;11492;42.646;23.400;2023-02-15T14:34:42;96241.66;;;10.60;43.25
22651;BME280;11492;42.646;23.400;2023-02-15T14:37:11;96242.47;;;10.09;44.53
22651;BME280;11492;42.646;23.400;2023-02-15T14:39:52;96243.78;;;10.13;44.81
22651;BME280;11492;42.646;23.400;2023-02-15T14:42:47;96245.81;;;9.93;44.87
22651;BME280;11492;42.646;23.400;2023-02-15T14:45:22;96241.19;;;9.96;44.52
22651;BME280;11492;42.646;23.400;2023-02-15T14:55:45;96242.38;;;9.75;46.41
22651;BME280;11492;42.646;23.400;2023-02-15T14:58:12;96245.03;;;9.83;46.22
22651;BME280;11492;42.646;23.400;2023-02-15T15:00:39;96241.94;;;9.79;46.27
22651;BME280;11492;42.646;23.400;2023-02-15T15:03:19;96241.25;;;9.77;45.90
22651;BME280;11492;42.646;23.400;2023-02-15T15:05:50;96244.19;;;9.65;46.38
22651;BME280;11492;42.646;23.400;2023-02-15T15:08:28;96234.84;;;9.64;46.18
22651;BME280;11492;42.646;23.400;2023-02-15T15:10:55;96243.59;;;9.45;46.74
22651;BME280;11492;42.646;23.400;2023-02-15T15:15:55;96236.59;;;9.37;46.79
22651;BME280;11492;42.646;23.400;2023-02-15T15:18:44;96242.63;;;9.10;47.70
22651;BME280;11492;42.646;23.400;2023-02-15T15:21:09;96240.22;;;8.90;48.58